CheckWX is a tool to help pilots better visualize weather data.  It is not intended as a substitute for an official pre-flight weather briefing.

06:23:54 UTC

24J METAR
Suwannee County Airport
Live Oak, Florida, USA
Current

9 mins ago

K24J 140615Z AUTO 02005KT 10SM OVC014 06/01 A3020 RMK A01
Observed
Nov-14 @ 06:15 UTC
Wind
  • 020° at 5 KTS
Visibility
10 SM
Flight Rules
MVFR
Cloud Levels
  • Overcast at 1,400' AGL
Temperature
C / 43°F
Dewpoint
C / 34°F
Humidity
71%
Altimeter
30.2" Hg
Pressure
1022.72 hPa
Previous

29 mins ago

K24J 140555Z AUTO 01006KT 10SM OVC013 06/01 A3020 RMK A01
Observed
Nov-14 @ 05:55 UTC
Wind
  • 010° at 6 KTS
Visibility
10 SM
Flight Rules
MVFR
Cloud Levels
  • Overcast at 1,300' AGL
Temperature
C / 43°F
Dewpoint
C / 34°F
Humidity
71%
Altimeter
30.2" Hg
Pressure
1022.72 hPa
Previous

49 mins ago

K24J 140535Z AUTO 03004G10KT 10SM OVC014 06/01 A3021 RMK A01
Observed
Nov-14 @ 05:35 UTC
Wind
  • 030° at 4 KTS
  • Gusting to 10 KTS
Visibility
10 SM
Flight Rules
MVFR
Cloud Levels
  • Overcast at 1,400' AGL
Temperature
C / 43°F
Dewpoint
C / 34°F
Humidity
71%
Altimeter
30.21" Hg
Pressure
1023.02 hPa